Time;durP1;ratioP1;P1;durP2;ratioP2;P2;SDS_P1;SDS_P2;PMS_P1;PMS_P2;Temp;Humidity;BMP_temperature;BMP_pressure;BME280_temperature;BME280_humidity;BME280_pressure;Samples;Min_cycle;Max_cycle;Signal;HPM_P1;HPM_P2
2020/12/21 00:03:33;;;;;;;24.10;9.50;;;4.50;99.90;;;;;;10275683;28;87667;-92
2020/12/21 00:08:36;;;;;;;23.60;9.83;;;4.60;99.90;;;;;;10354746;28;86610;-92
2020/12/21 00:13:42;;;;;;;90.60;50.17;;;4.70;99.90;;;;;;10374354;28;90181;-92
2020/12/21 00:18:44;;;;;;;193.07;121.27;;;4.70;99.90;;;;;;10370073;28;87821;-92
2020/12/21 00:23:47;;;;;;;38.03;18.00;;;4.60;99.90;;;;;;10354226;28;91432;-92
2020/12/21 00:28:48;;;;;;;333.60;184.63;;;4.60;99.90;;;;;;10302361;28;89998;-92
2020/12/21 00:33:50;;;;;;;344.70;201.50;;;4.60;99.90;;;;;;10249670;28;90097;-92
2020/12/21 00:38:55;;;;;;;91.13;46.97;;;4.60;99.90;;;;;;10225084;28;87764;-93
2020/12/21 00:43:57;;;;;;;31.17;15.67;;;4.60;99.90;;;;;;10204906;28;89831;-91
2020/12/21 00:49:01;;;;;;;71.53;40.23;;;4.60;99.90;;;;;;10210887;28;90859;-92
2020/12/21 00:54:04;;;;;;;32.70;16.70;;;4.60;99.90;;;;;;10198032;28;90473;-92
2020/12/21 00:59:06;;;;;;;50.13;29.77;;;4.60;99.90;;;;;;10230150;28;89953;-92
2020/12/21 01:04:08;;;;;;;130.13;72.80;;;4.60;99.90;;;;;;10275009;28;90006;-92
2020/12/21 01:09:11;;;;;;;28.93;10.30;;;4.60;99.90;;;;;;10304863;28;90762;-92
2020/12/21 01:14:15;;;;;;;27.80;10.27;;;4.60;99.90;;;;;;10261079;28;90984;-92
2020/12/21 01:19:17;;;;;;;25.67;11.43;;;4.70;99.90;;;;;;10262929;28;87664;-92
2020/12/21 01:24:19;;;;;;;127.93;74.00;;;4.70;99.90;;;;;;10262641;28;90528;-92
2020/12/21 01:29:21;;;;;;;146.27;80.53;;;4.70;99.90;;;;;;10262304;28;89658;-91
2020/12/21 01:34:23;;;;;;;513.53;407.57;;;4.70;99.90;;;;;;10181366;28;91185;-92
2020/12/21 01:39:28;;;;;;;564.63;370.03;;;4.70;99.90;;;;;;10215014;28;87849;-92
2020/12/21 01:44:30;;;;;;;315.40;248.20;;;4.70;99.90;;;;;;10250874;28;90970;-92
2020/12/21 01:49:32;;;;;;;269.23;185.37;;;4.80;99.90;;;;;;10300018;28;87696;-92
2020/12/21 01:54:35;;;;;;;255.33;155.80;;;4.80;99.90;;;;;;10283862;28;90089;-92
2020/12/21 01:59:37;;;;;;;127.97;68.87;;;4.90;99.90;;;;;;10235404;28;89484;-91
2020/12/21 02:04:39;;;;;;;108.77;58.07;;;4.90;99.90;;;;;;10215533;28;91003;-92
2020/12/21 02:09:43;;;;;;;44.00;23.80;;;4.80;99.90;;;;;;10235533;28;90800;-93
2020/12/21 02:14:45;;;;;;;142.90;78.20;;;4.80;99.90;;;;;;10238194;28;87169;-92
2020/12/21 02:19:46;;;;;;;31.27;16.10;;;4.80;99.90;;;;;;10238639;28;88123;-91
2020/12/21 02:24:49;;;;;;;23.03;9.73;;;4.70;99.90;;;;;;10259130;28;88110;-92
2020/12/21 02:29:51;;;;;;;22.90;10.03;;;4.70;99.90;;;;;;10278175;28;90489;-91
2020/12/21 02:34:53;;;;;;;28.23;8.33;;;4.70;99.90;;;;;;10329151;28;88171;-92
2020/12/21 02:39:55;;;;;;;29.17;10.67;;;4.70;99.90;;;;;;10368018;28;87372;-92
2020/12/21 02:44:57;;;;;;;26.63;11.03;;;4.70;99.90;;;;;;10385648;28;88151;-91
2020/12/21 02:49:59;;;;;;;27.13;10.43;;;4.70;99.90;;;;;;10258672;28;88639;-92
2020/12/21 02:55:03;;;;;;;32.90;11.83;;;4.60;99.90;;;;;;10250070;28;92324;-93
2020/12/21 03:00:07;;;;;;;24.77;10.43;;;4.50;99.90;;;;;;10222375;28;89191;-92
2020/12/21 03:05:09;;;;;;;28.47;9.63;;;4.50;99.90;;;;;;10175420;28;90583;-92
2020/12/21 03:10:11;;;;;;;30.50;11.57;;;4.40;99.90;;;;;;10189315;28;90308;-92
2020/12/21 03:15:13;;;;;;;24.43;9.77;;;4.40;99.90;;;;;;10173126;28;91832;-92
2020/12/21 03:20:15;;;;;;;31.50;10.90;;;4.40;99.90;;;;;;10247181;28;89874;-92
2020/12/21 03:25:18;;;;;;;25.43;9.47;;;4.50;99.90;;;;;;10304185;28;87785;-92
2020/12/21 03:30:20;;;;;;;34.77;10.27;;;4.50;99.90;;;;;;10339153;28;88538;-92
2020/12/21 03:35:22;;;;;;;28.93;10.83;;;4.50;99.90;;;;;;10357556;28;87679;-92
2020/12/21 03:40:25;;;;;;;23.13;9.37;;;4.60;99.90;;;;;;10265984;28;88981;-93
2020/12/21 03:45:26;;;;;;;28.73;10.10;;;4.60;99.90;;;;;;10273519;28;89912;-92
2020/12/21 03:50:31;;;;;;;21.23;8.77;;;4.60;99.90;;;;;;10267908;28;89019;-91
2020/12/21 03:55:34;;;;;;;29.23;11.27;;;4.60;99.90;;;;;;10270770;28;90564;-92
2020/12/21 04:00:35;;;;;;;28.87;10.03;;;4.60;99.90;;;;;;10268747;28;88038;-92
2020/12/21 04:05:37;;;;;;;27.60;10.00;;;4.60;99.90;;;;;;10266037;28;87934;-92
2020/12/21 04:10:43;;;;;;;29.93;9.70;;;4.50;99.90;;;;;;10256575;28;90788;-92
2020/12/21 04:15:45;;;;;;;24.73;9.87;;;4.50;99.90;;;;;;10262501;28;89995;-92
2020/12/21 04:20:47;;;;;;;79.90;12.00;;;4.40;99.90;;;;;;10305832;28;89091;-92
2020/12/21 04:25:50;;;;;;;72.93;11.73;;;4.40;99.90;;;;;;10303493;28;90856;-92
2020/12/21 04:30:51;;;;;;;30.43;11.47;;;4.40;99.90;;;;;;10289815;28;91118;-92
2020/12/21 04:35:53;;;;;;;44.93;11.03;;;4.40;99.90;;;;;;10300462;28;88912;-92
2020/12/21 04:40:57;;;;;;;102.23;11.60;;;4.40;99.90;;;;;;10283479;28;90789;-92
2020/12/21 04:46:04;;;;;;;81.97;12.10;;;4.40;99.90;;;;;;10322961;28;90962;-91
2020/12/21 04:51:07;;;;;;;55.47;12.63;;;4.30;99.90;;;;;;10298672;28;88269;-91
2020/12/21 04:56:10;;;;;;;75.17;10.77;;;4.20;99.90;;;;;;10324543;28;88822;-90
2020/12/21 05:01:12;;;;;;;23.27;9.63;;;4.20;99.90;;;;;;10345252;28;90213;-91
2020/12/21 05:06:14;;;;;;;38.93;9.57;;;4.10;99.90;;;;;;10345535;28;87837;-91
2020/12/21 05:11:20;;;;;;;34.40;9.83;;;4.00;99.90;;;;;;10224406;28;87490;-91
2020/12/21 05:16:25;;;;;;;48.97;10.30;;;3.90;99.90;;;;;;10164429;28;88824;-90
2020/12/21 05:21:28;;;;;;;22.10;10.53;;;3.80;99.90;;;;;;10163205;28;88848;-91
2020/12/21 05:26:32;;;;;;;25.57;9.90;;;3.80;99.90;;;;;;10160937;28;88274;-91
2020/12/21 05:31:34;;;;;;;39.67;10.83;;;3.80;99.90;;;;;;10148366;28;90918;-90
2020/12/21 05:36:36;;;;;;;34.27;19.47;;;3.70;99.90;;;;;;10152502;28;89926;-92
2020/12/21 05:41:39;;;;;;;26.93;11.60;;;3.70;99.90;;;;;;10213287;28;89211;-91
2020/12/21 05:46:41;;;;;;;27.40;12.47;;;3.60;99.90;;;;;;10261895;28;88312;-90
2020/12/21 05:51:49;;;;;;;29.73;13.67;;;3.50;99.90;;;;;;10274619;28;91093;-90
2020/12/21 05:56:53;;;;;;;25.03;10.73;;;3.50;99.90;;;;;;10305199;28;87417;-90
2020/12/21 06:01:59;;;;;;;48.97;9.30;;;3.40;99.90;;;;;;10303820;28;86967;-91
2020/12/21 06:07:04;;;;;;;117.80;11.17;;;3.40;99.90;;;;;;10305359;28;88238;-90
2020/12/21 06:12:06;;;;;;;161.83;11.43;;;3.40;99.90;;;;;;10317316;28;90940;-91
2020/12/21 06:17:12;;;;;;;98.37;10.37;;;3.50;99.90;;;;;;10333037;28;92049;-90
2020/12/21 06:22:24;;;;;;;154.90;14.83;;;3.50;99.90;;;;;;10351192;28;88170;-91
2020/12/21 06:27:38;;;;;;;98.03;12.30;;;3.40;99.90;;;;;;10356020;28;88355;-93
2020/12/21 06:32:40;;;;;;;36.27;10.20;;;3.40;99.90;;;;;;10340338;28;88936;-91
2020/12/21 06:37:42;;;;;;;50.93;11.07;;;3.30;99.90;;;;;;10302198;28;90263;-91
2020/12/21 06:42:44;;;;;;;63.20;14.03;;;3.40;99.90;;;;;;10304684;28;87729;-91
2020/12/21 06:47:46;;;;;;;26.60;10.70;;;3.40;99.90;;;;;;10224532;28;88910;-91
2020/12/21 06:52:48;;;;;;;28.13;10.07;;;3.50;99.90;;;;;;10153712;28;88342;-90
2020/12/21 06:57:52;;;;;;;61.60;10.30;;;3.50;99.90;;;;;;10117501;28;89215;-91
2020/12/21 07:02:54;;;;;;;65.13;9.33;;;3.50;99.90;;;;;;10110073;28;90533;-92
2020/12/21 07:07:59;;;;;;;106.10;11.63;;;3.60;99.90;;;;;;10129672;28;89295;-92
2020/12/21 07:13:02;;;;;;;30.90;12.67;;;3.60;99.90;;;;;;10131942;28;88165;-91
2020/12/21 07:18:04;;;;;;;90.33;14.67;;;3.60;99.90;;;;;;10173681;28;89258;-92
2020/12/21 07:23:07;;;;;;;112.43;14.90;;;3.70;99.90;;;;;;10259919;28;90444;-93
2020/12/21 07:28:09;;;;;;;90.27;16.87;;;3.70;99.90;;;;;;10382284;28;91052;-92
2020/12/21 07:33:13;;;;;;;136.07;14.23;;;3.80;99.90;;;;;;10374890;28;90592;-91
2020/12/21 07:44:23;;;;;;;148.30;12.30;;;3.80;99.90;;;;;;10366553;28;89307;-92
2020/12/21 07:49:32;;;;;;;42.73;13.03;;;3.80;99.90;;;;;;10377436;28;89774;-94
2020/12/21 07:54:43;;;;;;;40.43;11.33;;;3.90;99.90;;;;;;10379237;28;87424;-93
2020/12/21 07:59:56;;;;;;;52.27;15.10;;;3.90;99.90;;;;;;10375623;28;91547;-93
2020/12/21 08:24:21;;;;;;;72.53;18.90;;;4.30;99.90;;;;;;9976757;28;86986;-90
2020/12/21 08:29:26;;;;;;;59.20;18.00;;;4.30;99.90;;;;;;10062002;29;90089;-93
2020/12/21 08:34:28;;;;;;;45.83;14.87;;;4.40;99.90;;;;;;10064573;29;87782;-91
2020/12/21 08:39:31;;;;;;;94.50;20.70;;;4.40;99.90;;;;;;10062956;28;88494;-92
2020/12/21 08:44:36;;;;;;;91.60;28.20;;;4.50;99.90;;;;;;10104986;28;90166;-91
2020/12/21 08:49:38;;;;;;;72.50;32.03;;;4.50;99.90;;;;;;10100601;28;87225;-93
2020/12/21 08:54:40;;;;;;;60.57;28.83;;;4.50;99.90;;;;;;10236780;28;90967;-91
2020/12/21 08:59:42;;;;;;;112.03;51.57;;;4.60;99.90;;;;;;10262512;28;90176;-88
2020/12/21 09:04:43;;;;;;;95.17;34.67;;;4.60;99.90;;;;;;10284635;28;87754;-87
2020/12/21 09:09:46;;;;;;;114.13;53.67;;;4.60;99.90;;;;;;10308999;28;87933;-88
2020/12/21 09:14:48;;;;;;;88.10;44.27;;;4.70;99.90;;;;;;10311979;28;87768;-90
2020/12/21 09:19:49;;;;;;;68.87;33.23;;;4.80;99.90;;;;;;10316113;28;86995;-89
2020/12/21 09:24:52;;;;;;;55.03;29.30;;;4.80;99.90;;;;;;10330991;28;87944;-89
2020/12/21 09:29:54;;;;;;;89.17;27.17;;;4.80;99.90;;;;;;10347247;28;87079;-89
2020/12/21 09:34:55;;;;;;;80.73;39.90;;;4.80;99.90;;;;;;10326005;28;90314;-89
2020/12/21 09:39:58;;;;;;;108.77;48.90;;;4.80;99.90;;;;;;10326321;28;91464;-89
2020/12/21 09:45:00;;;;;;;90.73;32.47;;;4.90;99.90;;;;;;10324479;28;91928;-89
2020/12/21 09:50:02;;;;;;;73.23;24.47;;;4.80;99.90;;;;;;10325912;28;90844;-89
2020/12/21 09:55:05;;;;;;;73.53;37.27;;;4.90;99.90;;;;;;10344071;28;88186;-89
2020/12/21 10:00:06;;;;;;;75.13;36.30;;;4.70;99.90;;;;;;10343384;28;87712;-89
2020/12/21 10:05:08;;;;;;;64.67;37.80;;;4.60;99.90;;;;;;10327979;28;89986;-89
2020/12/21 10:10:13;;;;;;;83.60;41.80;;;4.60;99.90;;;;;;10324559;28;90167;-89
2020/12/21 10:15:15;;;;;;;89.97;46.40;;;4.50;99.90;;;;;;10344748;28;87285;-89
2020/12/21 10:20:17;;;;;;;73.33;37.37;;;4.30;99.90;;;;;;10343647;28;86510;-89
2020/12/21 10:25:19;;;;;;;118.83;53.40;;;4.30;99.90;;;;;;10339003;28;86981;-89
2020/12/21 10:30:21;;;;;;;102.30;50.90;;;4.40;99.90;;;;;;10343004;28;87849;-89
2020/12/21 10:35:23;;;;;;;141.63;66.60;;;4.50;99.90;;;;;;10341699;28;88103;-89
2020/12/21 10:40:28;;;;;;;174.33;81.93;;;4.60;99.90;;;;;;10341832;28;87836;-89
2020/12/21 10:45:32;;;;;;;190.80;90.70;;;4.60;99.90;;;;;;10342400;28;88045;-89
2020/12/21 10:50:34;;;;;;;145.03;69.77;;;4.70;99.90;;;;;;10343373;28;87804;-89
2020/12/21 10:55:37;;;;;;;142.30;68.30;;;4.70;99.90;;;;;;10342688;28;87834;-89
2020/12/21 11:00:39;;;;;;;127.07;60.70;;;4.80;99.90;;;;;;10345521;28;88069;-89
2020/12/21 11:05:40;;;;;;;170.40;92.03;;;4.90;99.90;;;;;;10346762;28;87227;-89
2020/12/21 11:10:43;;;;;;;455.63;252.13;;;5.00;99.90;;;;;;10330511;28;90309;-89
2020/12/21 11:15:45;;;;;;;800.37;580.57;;;5.10;99.90;;;;;;10351213;28;87777;-89
2020/12/21 11:20:46;;;;;;;782.20;589.40;;;5.10;99.90;;;;;;10348241;28;87813;-89
2020/12/21 11:25:51;;;;;;;826.10;635.37;;;5.20;99.90;;;;;;10346708;28;89037;-89
2020/12/21 11:30:53;;;;;;;470.03;271.20;;;5.20;99.90;;;;;;10356557;28;90902;-88
2020/12/21 11:35:56;;;;;;;259.43;135.37;;;5.30;99.90;;;;;;10329146;28;91238;-88
2020/12/21 11:40:59;;;;;;;508.60;324.03;;;5.30;99.90;;;;;;10348320;28;87817;-88
2020/12/21 11:46:00;;;;;;;410.87;210.17;;;5.30;99.90;;;;;;10331251;28;89970;-88
2020/12/21 11:51:02;;;;;;;325.70;163.40;;;5.30;99.90;;;;;;10347519;28;87811;-88
2020/12/21 11:56:05;;;;;;;351.23;171.33;;;5.50;99.90;;;;;;10345718;28;88246;-88
2020/12/21 12:01:07;;;;;;;480.63;300.43;;;5.40;99.90;;;;;;10328664;28;88544;-88
2020/12/21 12:06:08;;;;;;;689.73;523.03;;;5.60;99.90;;;;;;10324378;28;90303;-88
2020/12/21 12:11:13;;;;;;;582.80;447.00;;;5.90;99.90;;;;;;10326727;28;91786;-88
2020/12/21 12:16:19;;;;;;;349.10;211.30;;;6.10;99.90;;;;;;10340635;28;88744;-88
2020/12/21 12:21:22;;;;;;;498.10;380.03;;;6.50;99.90;;;;;;10343742;28;87593;-88
2020/12/21 12:26:26;;;;;;;480.23;406.80;;;6.60;99.90;;;;;;10326549;28;89695;-89
2020/12/21 12:31:28;;;;;;;554.07;452.37;;;6.70;99.90;;;;;;10325099;28;90280;-88
2020/12/21 12:36:29;;;;;;;201.93;126.87;;;6.60;99.90;;;;;;10344697;28;87775;-88
2020/12/21 12:41:37;;;;;;;52.10;28.10;;;6.70;99.90;;;;;;10347101;28;88015;-87
2020/12/21 12:46:39;;;;;;;81.10;46.60;;;6.80;99.90;;;;;;10347835;28;87460;-88
2020/12/21 12:51:43;;;;;;;64.10;38.27;;;6.80;99.90;;;;;;10329601;28;88195;-88
2020/12/21 12:56:47;;;;;;;117.00;65.80;;;6.80;99.90;;;;;;10330001;28;89798;-86
2020/12/21 13:01:49;;;;;;;236.40;147.47;;;6.90;99.90;;;;;;10347958;28;87965;-88
2020/12/21 13:06:50;;;;;;;76.40;43.87;;;7.10;99.90;;;;;;10339374;28;90859;-88
2020/12/21 13:11:53;;;;;;;175.80;103.30;;;7.20;99.90;;;;;;10343785;28;87798;-89
2020/12/21 13:16:56;;;;;;;153.20;89.67;;;7.40;99.90;;;;;;10342139;28;88772;-88
2020/12/21 13:21:57;;;;;;;61.20;34.50;;;7.40;99.90;;;;;;10344426;28;87952;-88
2020/12/21 13:27:00;;;;;;;20.10;8.30;;;7.40;99.90;;;;;;10326490;28;90808;-88
2020/12/21 13:32:02;;;;;;;46.80;24.87;;;7.50;99.90;;;;;;10344198;28;87665;-88
2020/12/21 13:37:03;;;;;;;206.37;121.17;;;7.50;99.90;;;;;;10324882;28;90336;-89
2020/12/21 13:42:06;;;;;;;230.57;149.23;;;7.50;99.90;;;;;;10343996;28;87045;-88
2020/12/21 13:47:08;;;;;;;167.43;118.33;;;7.50;99.90;;;;;;10339385;28;87923;-87
2020/12/21 13:52:10;;;;;;;647.63;575.23;;;7.60;99.90;;;;;;10321080;28;91949;-88
2020/12/21 13:57:12;;;;;;;137.07;79.70;;;7.60;99.90;;;;;;10325757;28;90266;-88
2020/12/21 14:02:14;;;;;;;55.63;32.43;;;7.60;99.90;;;;;;10341282;28;88139;-88
2020/12/21 14:07:16;;;;;;;33.47;19.23;;;7.60;99.90;;;;;;10339019;28;91665;-88
2020/12/21 14:12:19;;;;;;;30.63;18.20;;;7.60;99.90;;;;;;10340784;28;87607;-88
2020/12/21 14:17:21;;;;;;;29.27;17.83;;;7.50;99.90;;;;;;10342975;28;88078;-88
2020/12/21 14:22:22;;;;;;;35.20;21.93;;;7.50;99.90;;;;;;10342292;28;87833;-89
2020/12/21 14:27:25;;;;;;;38.53;21.40;;;7.50;99.90;;;;;;10321968;28;90861;-89
2020/12/21 14:32:27;;;;;;;37.07;23.43;;;7.50;99.90;;;;;;10342216;28;87099;-88
2020/12/21 14:37:28;;;;;;;93.77;53.20;;;7.50;99.90;;;;;;10343098;28;88123;-89
2020/12/21 14:42:33;;;;;;;47.03;26.43;;;7.40;99.90;;;;;;10324485;28;90115;-89
2020/12/21 14:47:35;;;;;;;37.10;20.70;;;7.30;99.90;;;;;;10326786;28;91710;-88
2020/12/21 14:52:37;;;;;;;26.50;10.03;;;7.20;99.90;;;;;;10349910;28;87630;-89
2020/12/21 14:57:40;;;;;;;33.83;14.20;;;7.10;99.90;;;;;;10350937;28;87814;-88
2020/12/21 15:02:42;;;;;;;23.17;12.00;;;7.10;99.90;;;;;;10348787;28;87840;-89
2020/12/21 15:07:43;;;;;;;25.37;13.23;;;7.10;99.90;;;;;;10331281;28;90917;-89
2020/12/21 15:12:46;;;;;;;25.53;13.90;;;7.00;99.90;;;;;;10336652;28;90272;-89
2020/12/21 15:17:48;;;;;;;28.30;11.87;;;7.00;99.90;;;;;;10350425;28;87856;-89
2020/12/21 15:22:49;;;;;;;27.07;13.83;;;7.00;99.90;;;;;;10351319;28;87554;-89
2020/12/21 15:27:52;;;;;;;138.80;76.07;;;6.90;99.90;;;;;;10349253;28;87807;-89
2020/12/21 15:32:54;;;;;;;60.73;34.40;;;6.90;99.90;;;;;;10352758;28;88119;-89
2020/12/21 15:37:56;;;;;;;36.50;22.43;;;6.80;99.90;;;;;;10331714;28;89820;-88
2020/12/21 15:42:58;;;;;;;32.23;16.40;;;6.80;99.90;;;;;;10346156;28;87623;-89
2020/12/21 15:48:00;;;;;;;26.23;13.77;;;6.80;99.90;;;;;;10349350;28;87647;-88
2020/12/21 15:53:02;;;;;;;28.03;16.17;;;6.80;99.90;;;;;;10333868;28;90319;-91
2020/12/21 15:58:04;;;;;;;23.13;10.07;;;6.90;99.90;;;;;;10349851;28;87730;-90
2020/12/21 16:03:06;;;;;;;26.63;9.87;;;6.90;99.90;;;;;;10347276;28;87071;-90
2020/12/21 16:08:08;;;;;;;25.23;9.87;;;6.90;99.90;;;;;;10333253;28;91035;-91
2020/12/21 16:13:11;;;;;;;27.80;10.10;;;6.90;99.90;;;;;;10351525;28;87158;-91
2020/12/21 16:18:13;;;;;;;28.57;11.20;;;6.90;99.90;;;;;;10348772;28;87726;-90
2020/12/21 16:23:15;;;;;;;21.97;9.30;;;6.90;99.90;;;;;;10329900;28;90321;-89
2020/12/21 16:28:17;;;;;;;25.63;9.53;;;6.90;99.90;;;;;;10350367;28;88916;-90
2020/12/21 16:33:20;;;;;;;24.23;10.40;;;6.90;99.90;;;;;;10328817;28;90632;-90
2020/12/21 16:38:22;;;;;;;26.00;10.83;;;6.90;99.90;;;;;;10347556;28;86904;-90
2020/12/21 16:43:25;;;;;;;24.63;14.47;;;6.90;99.90;;;;;;10329640;28;90048;-90
2020/12/21 16:48:27;;;;;;;22.77;11.20;;;6.90;99.90;;;;;;10328549;28;90304;-90
2020/12/21 16:53:29;;;;;;;29.90;17.60;;;6.90;99.90;;;;;;10326970;28;90959;-90
2020/12/21 16:58:32;;;;;;;27.33;15.03;;;6.90;99.90;;;;;;10348592;28;87891;-90
2020/12/21 17:03:33;;;;;;;22.83;10.40;;;6.80;99.90;;;;;;10342715;28;87048;-90
2020/12/21 17:08:36;;;;;;;16.43;6.83;;;6.90;99.90;;;;;;10345700;28;87030;-91
2020/12/21 17:13:38;;;;;;;17.27;8.57;;;6.90;99.90;;;;;;10328939;28;90333;-90
2020/12/21 17:18:41;;;;;;;20.07;8.03;;;6.90;99.90;;;;;;10330211;28;91694;-90
2020/12/21 17:23:43;;;;;;;38.07;13.63;;;6.90;99.90;;;;;;10324703;28;88963;-89
2020/12/21 17:28:46;;;;;;;29.60;11.00;;;6.80;99.90;;;;;;10325461;28;89644;-89
2020/12/21 17:33:47;;;;;;;21.03;9.83;;;6.80;99.90;;;;;;10326896;28;91393;-89
2020/12/21 17:38:49;;;;;;;21.13;9.10;;;6.80;99.90;;;;;;10329882;28;89206;-89
2020/12/21 17:43:52;;;;;;;23.80;8.63;;;6.80;99.90;;;;;;10327623;28;90376;-90
2020/12/21 17:48:54;;;;;;;18.30;8.37;;;6.80;99.90;;;;;;10328404;28;91143;-91
2020/12/21 17:53:56;;;;;;;18.20;8.83;;;6.80;99.90;;;;;;10345745;28;87287;-89
2020/12/21 17:58:59;;;;;;;23.30;12.00;;;6.80;99.90;;;;;;10345850;28;87889;-89
2020/12/21 18:04:01;;;;;;;27.77;15.27;;;6.80;99.90;;;;;;10343983;28;86892;-89
2020/12/21 18:09:03;;;;;;;27.70;14.23;;;6.70;99.90;;;;;;10327734;28;91013;-89
2020/12/21 18:14:05;;;;;;;19.03;10.93;;;6.70;99.90;;;;;;10328403;28;90844;-90
2020/12/21 18:19:07;;;;;;;23.43;13.53;;;6.70;99.90;;;;;;10343209;28;88274;-90
2020/12/21 18:24:09;;;;;;;24.07;11.23;;;6.70;99.90;;;;;;10342513;28;86904;-89
2020/12/21 18:29:12;;;;;;;15.30;7.07;;;6.70;99.90;;;;;;10325420;28;90443;-88
2020/12/21 18:34:16;;;;;;;18.70;8.17;;;6.70;99.90;;;;;;10345680;28;89617;-90
2020/12/21 18:39:19;;;;;;;15.43;7.27;;;6.70;99.90;;;;;;10287021;28;88922;-89
2020/12/21 18:44:22;;;;;;;19.80;7.23;;;6.80;99.90;;;;;;10287301;28;89323;-89
2020/12/21 18:49:24;;;;;;;15.20;6.90;;;6.80;99.90;;;;;;10288759;28;87035;-89
2020/12/21 18:54:25;;;;;;;15.80;7.17;;;6.90;99.90;;;;;;10288870;28;87763;-90
2020/12/21 18:59:28;;;;;;;25.80;9.43;;;6.90;99.90;;;;;;10285235;28;87920;-89
2020/12/21 19:04:30;;;;;;;17.03;8.53;;;6.90;99.90;;;;;;10285178;28;89722;-90
2020/12/21 19:09:32;;;;;;;18.07;7.13;;;6.90;99.90;;;;;;10291273;28;87796;-89
2020/12/21 19:14:35;;;;;;;22.23;8.90;;;6.90;99.90;;;;;;10248972;28;90269;-90
2020/12/21 19:19:38;;;;;;;17.50;7.30;;;7.00;99.90;;;;;;10265672;28;90940;-89
2020/12/21 19:24:40;;;;;;;17.37;9.70;;;7.00;99.90;;;;;;10225348;28;89017;-90
2020/12/21 19:29:43;;;;;;;21.10;8.67;;;7.10;99.90;;;;;;10241850;28;87738;-89
2020/12/21 19:34:49;;;;;;;16.30;8.17;;;7.20;99.90;;;;;;10244282;28;87120;-89
2020/12/21 19:39:53;;;;;;;19.60;9.97;;;7.20;99.90;;;;;;10184070;28;90619;-88
2020/12/21 19:44:56;;;;;;;16.67;10.13;;;7.20;99.90;;;;;;10197830;28;86934;-89
2020/12/21 19:50:00;;;;;;;18.80;8.70;;;7.20;99.90;;;;;;10223716;28;90150;-89
2020/12/21 19:55:02;;;;;;;16.77;9.13;;;7.20;99.90;;;;;;10216232;28;88021;-91
2020/12/21 20:06:10;;;;;;;18.53;9.63;;;7.20;99.90;;;;;;10169625;28;88051;-92
2020/12/21 20:11:13;;;;;;;15.17;8.50;;;7.20;99.90;;;;;;10301906;28;87415;-89
2020/12/21 20:16:16;;;;;;;20.67;8.73;;;7.30;99.90;;;;;;10314429;28;88711;-90
2020/12/21 20:21:19;;;;;;;29.90;17.50;;;7.20;99.90;;;;;;10317229;28;87702;-92
2020/12/21 20:26:27;;;;;;;36.90;21.63;;;7.20;99.90;;;;;;10275096;28;88396;-91
2020/12/21 20:31:33;;;;;;;16.73;7.60;;;7.20;99.90;;;;;;10259167;28;87397;-96
2020/12/21 21:18:04;;;;;;;44.73;30.37;;;7.00;99.90;;;;;;10495735;27;86865;-93
2020/12/21 21:23:49;;;;;;;23.80;16.77;;;6.90;99.90;;;;;;10519240;27;87912;-96
2020/12/21 21:28:53;;;;;;;22.73;12.80;;;6.90;99.90;;;;;;10934982;22;89457;-71
2020/12/21 21:33:55;;;;;;;24.67;12.80;;;6.90;99.90;;;;;;10365077;28;87546;-73
2020/12/21 21:38:57;;;;;;;25.03;16.40;;;6.90;99.90;;;;;;10366664;28;88067;-72
2020/12/21 21:43:59;;;;;;;22.23;10.53;;;6.90;99.90;;;;;;10365578;28;88101;-70
2020/12/21 21:49:01;;;;;;;15.20;10.63;;;6.90;99.90;;;;;;10362417;28;88436;-70
2020/12/21 21:54:03;;;;;;;18.90;10.73;;;6.90;99.90;;;;;;10363767;28;87780;-71
2020/12/21 21:59:05;;;;;;;19.87;10.83;;;6.90;99.90;;;;;;10374508;28;87605;-73
2020/12/21 22:04:07;;;;;;;24.87;18.50;;;7.00;99.90;;;;;;10385206;28;87134;-73
2020/12/21 22:09:09;;;;;;;35.37;25.47;;;7.00;99.90;;;;;;10399132;28;88672;-73
2020/12/21 22:14:11;;;;;;;24.00;15.83;;;7.10;99.90;;;;;;10379472;28;87663;-73
2020/12/21 22:19:16;;;;;;;22.77;16.53;;;7.20;99.90;;;;;;10400733;28;88021;-73
2020/12/21 22:24:18;;;;;;;20.77;11.83;;;7.20;99.90;;;;;;10388598;28;88595;-72
2020/12/21 22:29:20;;;;;;;21.93;13.47;;;7.20;99.90;;;;;;10408692;28;87586;-74
2020/12/21 22:34:23;;;;;;;13.57;8.47;;;7.20;99.90;;;;;;10407916;28;89085;-73
2020/12/21 22:39:25;;;;;;;16.10;8.13;;;7.30;99.90;;;;;;10384627;28;87775;-72
2020/12/21 22:44:26;;;;;;;14.07;6.27;;;7.30;99.90;;;;;;10391236;28;87882;-71
2020/12/21 22:49:29;;;;;;;14.23;5.60;;;7.40;99.90;;;;;;10385048;28;89993;-72
2020/12/21 22:54:30;;;;;;;15.10;6.53;;;7.40;99.90;;;;;;10387788;28;88073;-72
2020/12/21 22:59:32;;;;;;;13.80;5.80;;;7.50;99.90;;;;;;10379413;28;88819;-75
2020/12/21 23:04:35;;;;;;;10.60;5.23;;;7.60;99.90;;;;;;10397026;28;89099;-74
2020/12/21 23:09:36;;;;;;;12.60;4.53;;;7.60;99.90;;;;;;10412938;27;86901;-74
2020/12/21 23:14:38;;;;;;;16.10;5.30;;;7.70;99.90;;;;;;10403139;28;88637;-74
2020/12/21 23:19:40;;;;;;;11.90;5.20;;;7.80;99.90;;;;;;10391649;28;86934;-74
2020/12/21 23:24:42;;;;;;;11.93;5.63;;;7.80;99.90;;;;;;10382385;28;88572;-75
2020/12/21 23:29:44;;;;;;;12.30;6.30;;;7.80;99.90;;;;;;10380130;28;87821;-73
2020/12/21 23:34:46;;;;;;;12.80;5.87;;;7.80;99.90;;;;;;10395771;28;87583;-72
2020/12/21 23:39:48;;;;;;;13.93;5.57;;;7.80;99.90;;;;;;10396964;28;87076;-74
2020/12/21 23:44:52;;;;;;;17.00;6.00;;;7.90;99.90;;;;;;10386641;28;88687;-75
2020/12/21 23:49:55;;;;;;;11.10;5.97;;;7.90;99.90;;;;;;10389320;28;88851;-75
2020/12/21 23:54:57;;;;;;;15.50;7.00;;;7.90;99.90;;;;;;10400214;28;88067;-76
2020/12/21 23:59:58;;;;;;;13.50;6.07;;;7.90;99.90;;;;;;10423913;28;87308;-76
